DLH44T EDDF-LFMN
Flight info
| Callsign | DLH44T |
|---|---|
| Flight time | 1h 10m |
| Altitude | 35000 |
| Route | ANEKI2L/18 ANEKI Y163 NATOR DCT TRA DCT RIPUS DCT GERSA DCT SOSON DCT ODINA DCT ENOBA/N0377F190 Z185 BORDI |
| Aircraft | A321/M-SDE3FGHIRWY/LB1 |
Departure
| Time | 2026-05-01 14:03 |
|---|---|
| Airport | Frankfurt Main Airport (EDDF) |
Arrival
| Time | 2026-05-01 15:13 |
|---|---|
| Airport | Nice-Côte d'Azur Airport (LFMN) |
| Time | Latitude | Longitude | Altitude | Speed | Heading |
|---|---|---|---|---|---|
| 2026-05-01 13:28 | 50.04749 | 8.56891 | 371 ft | 0 kts | 295° |
| 2026-05-01 13:50 | 50.04747 | 8.56897 | 371 ft | 2 kts | 295° |
| 2026-05-01 13:50 | 50.04740 | 8.56917 | 371 ft | 2 kts | 296° |
| 2026-05-01 13:51 | 50.04734 | 8.56938 | 371 ft | 2 kts | 297° |
| 2026-05-01 13:51 | 50.04727 | 8.56960 | 371 ft | 2 kts | 279° |
| 2026-05-01 13:51 | 50.04729 | 8.56982 | 371 ft | 2 kts | 237° |
| 2026-05-01 13:51 | 50.04741 | 8.56998 | 371 ft | 2 kts | 199° |
| 2026-05-01 13:52 | 50.04751 | 8.57003 | 371 ft | 0 kts | 203° |
| 2026-05-01 13:52 | 50.04753 | 8.57004 | 371 ft | 0 kts | 204° |
| 2026-05-01 13:54 | 50.04751 | 8.57003 | 371 ft | 0 kts | 204° |
| 2026-05-01 13:54 | 50.04705 | 8.56971 | 371 ft | 10 kts | 205° |
| 2026-05-01 13:54 | 50.04635 | 8.56920 | 371 ft | 11 kts | 205° |
| 2026-05-01 13:55 | 50.04562 | 8.56868 | 371 ft | 11 kts | 205° |
| 2026-05-01 13:55 | 50.04478 | 8.56848 | 371 ft | 12 kts | 182° |
| 2026-05-01 13:55 | 50.04391 | 8.56841 | 371 ft | 12 kts | 189° |
| 2026-05-01 13:55 | 50.04304 | 8.56814 | 371 ft | 12 kts | 192° |
| 2026-05-01 13:56 | 50.04242 | 8.56749 | 371 ft | 11 kts | 243° |
| 2026-05-01 13:56 | 50.04210 | 8.56625 | 371 ft | 14 kts | 250° |
| 2026-05-01 13:56 | 50.04172 | 8.56468 | 371 ft | 15 kts | 250° |
| 2026-05-01 13:56 | 50.04134 | 8.56307 | 371 ft | 15 kts | 249° |
| 2026-05-01 13:57 | 50.04095 | 8.56147 | 371 ft | 15 kts | 250° |
| 2026-05-01 13:57 | 50.04069 | 8.56037 | 371 ft | 17 kts | 250° |
| 2026-05-01 13:57 | 50.04005 | 8.55770 | 371 ft | 19 kts | 250° |
| 2026-05-01 13:57 | 50.03957 | 8.55569 | 371 ft | 19 kts | 250° |
| 2026-05-01 13:58 | 50.03910 | 8.55370 | 371 ft | 22 kts | 249° |
| 2026-05-01 13:58 | 50.03855 | 8.55141 | 371 ft | 22 kts | 249° |
| 2026-05-01 13:58 | 50.03803 | 8.54924 | 371 ft | 20 kts | 250° |
| 2026-05-01 13:58 | 50.03754 | 8.54718 | 371 ft | 20 kts | 250° |
| 2026-05-01 13:59 | 50.03706 | 8.54516 | 371 ft | 19 kts | 250° |
| 2026-05-01 13:59 | 50.03659 | 8.54321 | 371 ft | 18 kts | 250° |
| 2026-05-01 13:59 | 50.03614 | 8.54133 | 371 ft | 18 kts | 250° |
| 2026-05-01 13:59 | 50.03569 | 8.53945 | 371 ft | 18 kts | 250° |
| 2026-05-01 14:00 | 50.03525 | 8.53760 | 371 ft | 17 kts | 250° |
| 2026-05-01 14:00 | 50.03482 | 8.53581 | 371 ft | 17 kts | 249° |
| 2026-05-01 14:00 | 50.03439 | 8.53403 | 371 ft | 17 kts | 250° |
| 2026-05-01 14:00 | 50.03397 | 8.53228 | 371 ft | 17 kts | 250° |
| 2026-05-01 14:01 | 50.03356 | 8.53052 | 371 ft | 17 kts | 250° |
| 2026-05-01 14:01 | 50.03314 | 8.52880 | 371 ft | 16 kts | 250° |
| 2026-05-01 14:01 | 50.03274 | 8.52716 | 371 ft | 14 kts | 250° |
| 2026-05-01 14:01 | 50.03238 | 8.52606 | 371 ft | 10 kts | 215° |
| 2026-05-01 14:02 | 50.03174 | 8.52591 | 371 ft | 9 kts | 181° |
| 2026-05-01 14:02 | 50.03031 | 8.52592 | 371 ft | 53 kts | 180° |
| 2026-05-01 14:02 | 50.02607 | 8.52594 | 371 ft | 108 kts | 179° |
| 2026-05-01 14:02 | 50.01630 | 8.52601 | 385 ft | 169 kts | 179° |
| 2026-05-01 14:03 | 50.00406 | 8.52586 | 935 ft | 177 kts | 176° |
| 2026-05-01 14:03 | 49.99265 | 8.52663 | 1737 ft | 170 kts | 174° |
| 2026-05-01 14:03 | 49.98095 | 8.52736 | 2249 ft | 174 kts | 174° |
| 2026-05-01 14:03 | 49.96841 | 8.52832 | 2633 ft | 186 kts | 174° |
| 2026-05-01 14:04 | 49.95498 | 8.52937 | 3004 ft | 202 kts | 174° |
| 2026-05-01 14:04 | 49.94031 | 8.53068 | 3337 ft | 221 kts | 177° |
| 2026-05-01 14:04 | 49.92437 | 8.53178 | 3808 ft | 234 kts | 176° |
| 2026-05-01 14:04 | 49.91368 | 8.53252 | 4331 ft | 234 kts | 175° |
| 2026-05-01 14:05 | 49.89285 | 8.53410 | 5336 ft | 234 kts | 177° |
| 2026-05-01 14:05 | 49.87707 | 8.53518 | 6052 ft | 236 kts | 178° |
| 2026-05-01 14:05 | 49.86069 | 8.53633 | 6769 ft | 238 kts | 178° |
| 2026-05-01 14:05 | 49.84411 | 8.53765 | 7459 ft | 240 kts | 179° |
| 2026-05-01 14:06 | 49.82753 | 8.53890 | 8121 ft | 243 kts | 180° |
| 2026-05-01 14:06 | 49.81049 | 8.54017 | 8753 ft | 247 kts | 181° |
| 2026-05-01 14:06 | 49.79332 | 8.54138 | 9382 ft | 250 kts | 181° |
| 2026-05-01 14:06 | 49.77596 | 8.54136 | 10035 ft | 251 kts | 187° |
| 2026-05-01 14:07 | 49.75830 | 8.53934 | 10401 ft | 264 kts | 189° |
| 2026-05-01 14:07 | 49.73952 | 8.53681 | 10688 ft | 280 kts | 189° |
| 2026-05-01 14:07 | 49.72001 | 8.53412 | 10971 ft | 295 kts | 189° |
| 2026-05-01 14:08 | 49.67720 | 8.52830 | 11521 ft | 326 kts | 189° |
| 2026-05-01 14:08 | 49.65427 | 8.52524 | 11781 ft | 341 kts | 188° |
| 2026-05-01 14:08 | 49.63011 | 8.52205 | 12101 ft | 353 kts | 188° |
| 2026-05-01 14:08 | 49.60585 | 8.51888 | 12644 ft | 357 kts | 189° |
| 2026-05-01 14:09 | 49.58108 | 8.51567 | 13266 ft | 359 kts | 189° |
| 2026-05-01 14:09 | 49.55627 | 8.51244 | 13853 ft | 362 kts | 189° |
| 2026-05-01 14:09 | 49.53146 | 8.50919 | 14415 ft | 365 kts | 189° |
| 2026-05-01 14:09 | 49.50638 | 8.50590 | 14970 ft | 367 kts | 190° |
| 2026-05-01 14:10 | 49.48127 | 8.50260 | 15511 ft | 370 kts | 190° |
| 2026-05-01 14:10 | 49.45539 | 8.49920 | 16052 ft | 373 kts | 190° |
| 2026-05-01 14:10 | 49.42952 | 8.49579 | 16577 ft | 375 kts | 191° |
| 2026-05-01 14:10 | 49.40342 | 8.49235 | 17092 ft | 378 kts | 191° |
| 2026-05-01 14:11 | 49.37700 | 8.48888 | 17597 ft | 381 kts | 191° |
| 2026-05-01 14:11 | 49.32410 | 8.48196 | 18563 ft | 386 kts | 191° |
| 2026-05-01 14:11 | 49.29733 | 8.47847 | 19030 ft | 389 kts | 191° |
| 2026-05-01 14:12 | 49.27020 | 8.47495 | 19488 ft | 391 kts | 192° |
| 2026-05-01 14:12 | 49.24311 | 8.47144 | 19931 ft | 394 kts | 192° |
| 2026-05-01 14:12 | 49.21612 | 8.46792 | 20359 ft | 396 kts | 192° |
| 2026-05-01 14:12 | 49.18845 | 8.46431 | 20785 ft | 399 kts | 192° |
| 2026-05-01 14:13 | 49.16091 | 8.46072 | 21196 ft | 401 kts | 192° |
| 2026-05-01 14:13 | 49.14232 | 8.45830 | 21466 ft | 403 kts | 192° |
| 2026-05-01 14:13 | 49.10517 | 8.45348 | 21992 ft | 406 kts | 192° |
| 2026-05-01 14:13 | 49.07690 | 8.44917 | 22361 ft | 407 kts | 195° |
| 2026-05-01 14:14 | 49.04905 | 8.44261 | 22706 ft | 407 kts | 198° |
| 2026-05-01 14:14 | 49.02132 | 8.43358 | 23040 ft | 408 kts | 200° |
| 2026-05-01 14:14 | 48.99337 | 8.42379 | 23365 ft | 411 kts | 201° |
| 2026-05-01 14:14 | 48.96564 | 8.41409 | 23674 ft | 415 kts | 201° |
| 2026-05-01 14:15 | 48.93734 | 8.40421 | 23981 ft | 418 kts | 200° |
| 2026-05-01 14:15 | 48.90878 | 8.39427 | 24303 ft | 421 kts | 201° |
| 2026-05-01 14:15 | 48.88032 | 8.38440 | 24620 ft | 423 kts | 200° |
| 2026-05-01 14:15 | 48.85201 | 8.37466 | 24926 ft | 425 kts | 201° |
| 2026-05-01 14:16 | 48.82284 | 8.36462 | 25230 ft | 428 kts | 201° |
| 2026-05-01 14:16 | 48.79384 | 8.35462 | 25526 ft | 430 kts | 201° |
| 2026-05-01 14:16 | 48.76516 | 8.34445 | 25814 ft | 431 kts | 201° |
| 2026-05-01 14:16 | 48.73584 | 8.33363 | 26095 ft | 434 kts | 201° |
| 2026-05-01 14:17 | 48.70697 | 8.32291 | 26374 ft | 436 kts | 201° |
| 2026-05-01 14:17 | 48.67728 | 8.31195 | 26664 ft | 438 kts | 201° |
| 2026-05-01 14:17 | 48.64786 | 8.30116 | 26935 ft | 440 kts | 201° |
| 2026-05-01 14:17 | 48.61800 | 8.29026 | 27204 ft | 443 kts | 201° |
| 2026-05-01 14:18 | 48.58772 | 8.27924 | 27474 ft | 445 kts | 201° |
| 2026-05-01 14:18 | 48.55786 | 8.26839 | 27733 ft | 447 kts | 201° |
| 2026-05-01 14:18 | 48.52738 | 8.25777 | 27981 ft | 452 kts | 198° |
| 2026-05-01 14:18 | 48.50667 | 8.25305 | 28134 ft | 458 kts | 193° |
| 2026-05-01 14:19 | 48.46393 | 8.25163 | 28445 ft | 471 kts | 183° |
| 2026-05-01 14:19 | 48.43123 | 8.25751 | 28723 ft | 477 kts | 178° |
| 2026-05-01 14:19 | 48.39855 | 8.26551 | 29066 ft | 477 kts | 177° |
| 2026-05-01 14:19 | 48.36570 | 8.27393 | 29364 ft | 478 kts | 177° |
| 2026-05-01 14:20 | 48.33315 | 8.28219 | 29695 ft | 477 kts | 178° |
| 2026-05-01 14:20 | 48.26810 | 8.29822 | 30355 ft | 475 kts | 178° |
| 2026-05-01 14:20 | 48.23539 | 8.30610 | 30644 ft | 474 kts | 178° |
| 2026-05-01 14:21 | 48.20298 | 8.31387 | 30919 ft | 475 kts | 178° |
| 2026-05-01 14:21 | 48.17032 | 8.32170 | 31195 ft | 475 kts | 178° |
| 2026-05-01 14:21 | 48.13777 | 8.32958 | 31467 ft | 475 kts | 178° |
| 2026-05-01 14:22 | 48.07307 | 8.34531 | 31989 ft | 475 kts | 178° |
| 2026-05-01 14:22 | 48.04023 | 8.35327 | 32251 ft | 475 kts | 178° |
| 2026-05-01 14:22 | 48.00786 | 8.36110 | 32505 ft | 474 kts | 178° |
| 2026-05-01 14:22 | 47.97549 | 8.36891 | 32756 ft | 474 kts | 178° |
| 2026-05-01 14:23 | 47.94317 | 8.37670 | 33003 ft | 474 kts | 178° |
| 2026-05-01 14:23 | 47.91064 | 8.38452 | 33244 ft | 474 kts | 178° |
| 2026-05-01 14:23 | 47.87813 | 8.39233 | 33469 ft | 474 kts | 178° |
| 2026-05-01 14:23 | 47.84521 | 8.40021 | 33664 ft | 475 kts | 178° |
| 2026-05-01 14:24 | 47.81317 | 8.40787 | 33830 ft | 476 kts | 178° |
| 2026-05-01 14:24 | 47.78051 | 8.41568 | 33998 ft | 477 kts | 178° |
| 2026-05-01 14:24 | 47.74778 | 8.42349 | 34171 ft | 478 kts | 178° |
| 2026-05-01 14:24 | 47.71452 | 8.43144 | 34352 ft | 479 kts | 178° |
| 2026-05-01 14:25 | 47.68197 | 8.43846 | 34526 ft | 477 kts | 181° |
| 2026-05-01 14:25 | 47.64904 | 8.44355 | 34692 ft | 476 kts | 182° |
| 2026-05-01 14:25 | 47.61603 | 8.44839 | 34860 ft | 477 kts | 182° |
| 2026-05-01 14:25 | 47.58282 | 8.45322 | 35023 ft | 477 kts | 182° |
| 2026-05-01 14:26 | 47.55004 | 8.45800 | 35182 ft | 478 kts | 182° |
| 2026-05-01 14:26 | 47.48387 | 8.46769 | 35264 ft | 479 kts | 182° |
| 2026-05-01 14:27 | 47.41768 | 8.47740 | 35270 ft | 479 kts | 182° |
| 2026-05-01 14:27 | 47.35142 | 8.48710 | 35271 ft | 479 kts | 182° |
| 2026-05-01 14:28 | 47.25257 | 8.50152 | 35270 ft | 479 kts | 182° |
| 2026-05-01 14:28 | 47.18618 | 8.51120 | 35266 ft | 479 kts | 182° |
| 2026-05-01 14:29 | 47.12026 | 8.52079 | 35263 ft | 479 kts | 182° |
| 2026-05-01 14:30 | 46.98775 | 8.53987 | 35268 ft | 479 kts | 181° |
| 2026-05-01 14:31 | 46.88892 | 8.55397 | 35271 ft | 477 kts | 179° |
| 2026-05-01 14:31 | 46.82288 | 8.56353 | 35271 ft | 475 kts | 179° |
| 2026-05-01 14:32 | 46.75744 | 8.57302 | 35270 ft | 475 kts | 179° |
| 2026-05-01 14:32 | 46.69156 | 8.58244 | 35269 ft | 475 kts | 179° |
| 2026-05-01 14:33 | 46.62626 | 8.59174 | 35269 ft | 475 kts | 179° |
| 2026-05-01 14:33 | 46.56041 | 8.60109 | 35278 ft | 475 kts | 179° |
| 2026-05-01 14:34 | 46.49489 | 8.61037 | 35295 ft | 475 kts | 179° |
| 2026-05-01 14:34 | 46.42966 | 8.61959 | 35307 ft | 474 kts | 179° |
| 2026-05-01 14:35 | 46.36366 | 8.62889 | 35315 ft | 475 kts | 179° |
| 2026-05-01 14:35 | 46.29804 | 8.63814 | 35321 ft | 475 kts | 179° |
| 2026-05-01 14:36 | 46.23274 | 8.64730 | 35323 ft | 475 kts | 179° |
| 2026-05-01 14:36 | 46.16727 | 8.65660 | 35323 ft | 474 kts | 180° |
| 2026-05-01 14:37 | 46.10213 | 8.66018 | 35326 ft | 468 kts | 187° |
| 2026-05-01 14:37 | 46.03772 | 8.65252 | 35326 ft | 463 kts | 194° |
| 2026-05-01 14:38 | 45.97392 | 8.63920 | 35326 ft | 463 kts | 194° |
| 2026-05-01 14:38 | 45.91021 | 8.62603 | 35325 ft | 464 kts | 194° |
| 2026-05-01 14:39 | 45.84624 | 8.61302 | 35326 ft | 464 kts | 194° |
| 2026-05-01 14:39 | 45.78239 | 8.60013 | 35325 ft | 464 kts | 194° |
| 2026-05-01 14:40 | 45.71891 | 8.58729 | 35326 ft | 464 kts | 194° |
| 2026-05-01 14:40 | 45.65482 | 8.57434 | 35325 ft | 464 kts | 194° |
| 2026-05-01 14:41 | 45.59127 | 8.56151 | 35326 ft | 464 kts | 194° |
| 2026-05-01 14:41 | 45.52742 | 8.54866 | 35325 ft | 464 kts | 194° |
| 2026-05-01 14:42 | 45.46372 | 8.53587 | 35325 ft | 464 kts | 194° |
| 2026-05-01 14:42 | 45.39973 | 8.52307 | 35326 ft | 463 kts | 194° |
| 2026-05-01 14:43 | 45.33583 | 8.51029 | 35325 ft | 463 kts | 194° |
| 2026-05-01 14:43 | 45.27229 | 8.49762 | 35325 ft | 464 kts | 194° |
| 2026-05-01 14:44 | 45.20838 | 8.48489 | 35326 ft | 464 kts | 194° |
| 2026-05-01 14:44 | 45.11288 | 8.46595 | 35325 ft | 464 kts | 194° |
| 2026-05-01 14:45 | 45.01729 | 8.44702 | 35325 ft | 466 kts | 194° |
| 2026-05-01 14:46 | 44.95312 | 8.43436 | 35033 ft | 469 kts | 194° |
| 2026-05-01 14:46 | 44.88849 | 8.42164 | 33637 ft | 471 kts | 194° |
| 2026-05-01 14:46 | 44.85600 | 8.41530 | 32915 ft | 472 kts | 193° |
| 2026-05-01 14:47 | 44.82360 | 8.40898 | 32179 ft | 473 kts | 193° |
| 2026-05-01 14:47 | 44.79113 | 8.40264 | 31427 ft | 475 kts | 193° |
| 2026-05-01 14:47 | 44.75820 | 8.39621 | 30653 ft | 476 kts | 193° |
| 2026-05-01 14:48 | 44.69265 | 8.38341 | 29096 ft | 479 kts | 193° |
| 2026-05-01 14:48 | 44.66263 | 8.37756 | 28553 ft | 475 kts | 193° |
| 2026-05-01 14:48 | 44.59782 | 8.36499 | 27550 ft | 463 kts | 192° |
| 2026-05-01 14:49 | 44.53479 | 8.35272 | 26538 ft | 453 kts | 192° |
| 2026-05-01 14:49 | 44.47331 | 8.34057 | 25525 ft | 445 kts | 192° |
| 2026-05-01 14:50 | 44.43265 | 8.33252 | 24852 ft | 439 kts | 191° |
| 2026-05-01 14:50 | 44.35331 | 8.31711 | 23544 ft | 429 kts | 191° |
| 2026-05-01 14:51 | 44.32412 | 8.31094 | 23054 ft | 424 kts | 194° |
| 2026-05-01 14:51 | 44.26828 | 8.28961 | 22087 ft | 413 kts | 204° |
| 2026-05-01 14:52 | 44.21518 | 8.26041 | 21123 ft | 406 kts | 205° |
| 2026-05-01 14:52 | 44.18933 | 8.24598 | 20653 ft | 404 kts | 205° |
| 2026-05-01 14:52 | 44.13766 | 8.21731 | 19709 ft | 399 kts | 205° |
| 2026-05-01 14:53 | 44.11197 | 8.20311 | 19238 ft | 396 kts | 205° |
| 2026-05-01 14:53 | 44.08649 | 8.18907 | 18769 ft | 394 kts | 204° |
| 2026-05-01 14:53 | 44.06108 | 8.17509 | 18298 ft | 392 kts | 204° |
| 2026-05-01 14:53 | 44.03605 | 8.16133 | 17834 ft | 390 kts | 204° |
| 2026-05-01 14:54 | 44.01073 | 8.14743 | 17364 ft | 387 kts | 204° |
| 2026-05-01 14:54 | 43.98576 | 8.13374 | 16898 ft | 385 kts | 204° |
| 2026-05-01 14:54 | 43.96110 | 8.12023 | 16436 ft | 383 kts | 204° |
| 2026-05-01 14:54 | 43.93652 | 8.10678 | 15975 ft | 381 kts | 204° |
| 2026-05-01 14:55 | 43.91193 | 8.09333 | 15512 ft | 379 kts | 204° |
| 2026-05-01 14:55 | 43.88752 | 8.08002 | 15048 ft | 376 kts | 204° |
| 2026-05-01 14:55 | 43.86321 | 8.06683 | 14588 ft | 374 kts | 203° |
| 2026-05-01 14:55 | 43.83926 | 8.05384 | 14133 ft | 372 kts | 203° |
| 2026-05-01 14:56 | 43.81540 | 8.04089 | 13677 ft | 370 kts | 203° |
| 2026-05-01 14:56 | 43.79130 | 8.02780 | 13213 ft | 368 kts | 203° |
| 2026-05-01 14:56 | 43.76783 | 8.01505 | 12762 ft | 365 kts | 203° |
| 2026-05-01 14:56 | 43.74446 | 8.00235 | 12311 ft | 363 kts | 203° |
| 2026-05-01 14:57 | 43.72085 | 7.98954 | 11854 ft | 361 kts | 203° |
| 2026-05-01 14:57 | 43.67435 | 7.96434 | 10946 ft | 357 kts | 203° |
| 2026-05-01 14:57 | 43.65119 | 7.95180 | 10608 ft | 351 kts | 202° |
| 2026-05-01 14:58 | 43.62890 | 7.93975 | 10517 ft | 337 kts | 203° |
| 2026-05-01 14:58 | 43.60761 | 7.92826 | 10423 ft | 325 kts | 203° |
| 2026-05-01 14:58 | 43.58686 | 7.91705 | 10332 ft | 312 kts | 203° |
| 2026-05-01 14:58 | 43.56704 | 7.90634 | 10092 ft | 307 kts | 203° |
| 2026-05-01 14:59 | 43.54735 | 7.89568 | 9820 ft | 302 kts | 203° |
| 2026-05-01 14:59 | 43.52798 | 7.88520 | 9421 ft | 302 kts | 203° |
| 2026-05-01 14:59 | 43.50823 | 7.87455 | 9027 ft | 301 kts | 203° |
| 2026-05-01 14:59 | 43.48879 | 7.86408 | 8666 ft | 300 kts | 203° |
| 2026-05-01 15:00 | 43.45034 | 7.84334 | 7977 ft | 296 kts | 204° |
| 2026-05-01 15:00 | 43.43332 | 7.82842 | 7540 ft | 294 kts | 230° |
| 2026-05-01 15:00 | 43.42455 | 7.80430 | 7291 ft | 281 kts | 262° |
| 2026-05-01 15:01 | 43.42294 | 7.77752 | 7115 ft | 272 kts | 270° |
| 2026-05-01 15:01 | 43.42294 | 7.75159 | 6770 ft | 271 kts | 272° |
| 2026-05-01 15:01 | 43.42323 | 7.72578 | 6403 ft | 271 kts | 272° |
| 2026-05-01 15:01 | 43.42361 | 7.69982 | 6068 ft | 270 kts | 272° |
| 2026-05-01 15:02 | 43.42400 | 7.67413 | 5736 ft | 269 kts | 271° |
| 2026-05-01 15:02 | 43.42386 | 7.66548 | 5621 ft | 269 kts | 268° |
| 2026-05-01 15:02 | 43.42012 | 7.62293 | 5269 ft | 268 kts | 263° |
| 2026-05-01 15:02 | 43.41737 | 7.59778 | 5120 ft | 268 kts | 262° |
| 2026-05-01 15:03 | 43.41456 | 7.57221 | 4969 ft | 268 kts | 262° |
| 2026-05-01 15:03 | 43.41179 | 7.54699 | 4820 ft | 268 kts | 262° |
| 2026-05-01 15:03 | 43.40904 | 7.52177 | 4670 ft | 267 kts | 262° |
| 2026-05-01 15:03 | 43.40628 | 7.49634 | 4519 ft | 266 kts | 262° |
| 2026-05-01 15:04 | 43.40353 | 7.47103 | 4386 ft | 266 kts | 262° |
| 2026-05-01 15:04 | 43.40082 | 7.44597 | 4262 ft | 266 kts | 262° |
| 2026-05-01 15:04 | 43.39812 | 7.42093 | 4137 ft | 265 kts | 262° |
| 2026-05-01 15:04 | 43.39543 | 7.39593 | 4012 ft | 265 kts | 262° |
| 2026-05-01 15:05 | 43.39271 | 7.37062 | 3886 ft | 264 kts | 262° |
| 2026-05-01 15:05 | 43.39004 | 7.34574 | 3759 ft | 259 kts | 262° |
| 2026-05-01 15:05 | 43.38747 | 7.32163 | 3631 ft | 251 kts | 262° |
| 2026-05-01 15:05 | 43.38500 | 7.29839 | 3503 ft | 242 kts | 262° |
| 2026-05-01 15:06 | 43.38260 | 7.27588 | 3376 ft | 235 kts | 262° |
| 2026-05-01 15:06 | 43.38024 | 7.25362 | 3251 ft | 235 kts | 262° |
| 2026-05-01 15:06 | 43.37787 | 7.23118 | 3124 ft | 234 kts | 262° |
| 2026-05-01 15:06 | 43.37588 | 7.20916 | 3049 ft | 233 kts | 270° |
| 2026-05-01 15:07 | 43.38058 | 7.18788 | 3028 ft | 232 kts | 310° |
| 2026-05-01 15:07 | 43.39371 | 7.17543 | 3039 ft | 232 kts | 343° |
| 2026-05-01 15:07 | 43.40961 | 7.17190 | 3046 ft | 232 kts | 354° |
| 2026-05-01 15:07 | 43.42570 | 7.16979 | 3041 ft | 229 kts | 354° |
| 2026-05-01 15:08 | 43.44114 | 7.16743 | 3032 ft | 218 kts | 353° |
| 2026-05-01 15:08 | 43.45621 | 7.16474 | 3037 ft | 217 kts | 352° |
| 2026-05-01 15:08 | 43.47109 | 7.16263 | 3040 ft | 216 kts | 355° |
| 2026-05-01 15:08 | 43.48604 | 7.16121 | 3040 ft | 216 kts | 356° |
| 2026-05-01 15:09 | 43.50106 | 7.15987 | 3090 ft | 210 kts | 356° |
| 2026-05-01 15:09 | 43.51514 | 7.15859 | 3001 ft | 197 kts | 356° |
| 2026-05-01 15:09 | 43.52865 | 7.15733 | 2699 ft | 192 kts | 356° |
| 2026-05-01 15:09 | 43.54146 | 7.15611 | 2461 ft | 178 kts | 356° |
| 2026-05-01 15:10 | 43.55363 | 7.15495 | 2196 ft | 168 kts | 356° |
| 2026-05-01 15:10 | 43.57519 | 7.15288 | 1763 ft | 148 kts | 356° |
| 2026-05-01 15:10 | 43.58552 | 7.15188 | 1577 ft | 147 kts | 356° |
| 2026-05-01 15:11 | 43.59574 | 7.15088 | 1389 ft | 147 kts | 356° |
| 2026-05-01 15:11 | 43.61573 | 7.15375 | 1045 ft | 146 kts | 28° |
| 2026-05-01 15:11 | 43.62335 | 7.16275 | 873 ft | 146 kts | 50° |
| 2026-05-01 15:12 | 43.62948 | 7.17399 | 707 ft | 146 kts | 50° |
| 2026-05-01 15:12 | 43.64397 | 7.19332 | 330 ft | 145 kts | 46° |
| 2026-05-01 15:12 | 43.65115 | 7.20313 | 83 ft | 143 kts | 45° |
| 2026-05-01 15:13 | 43.66272 | 7.21901 | 21 ft | 27 kts | 39° |
| 2026-05-01 15:14 | 43.66486 | 7.22052 | 21 ft | 5 kts | 14° |
| 2026-05-01 15:14 | 43.66527 | 7.22048 | 21 ft | 6 kts | 337° |
| 2026-05-01 15:14 | 43.66632 | 7.21917 | 21 ft | 11 kts | 309° |
| 2026-05-01 15:15 | 43.66561 | 7.21740 | 21 ft | 12 kts | 224° |
| 2026-05-01 15:15 | 43.66445 | 7.21582 | 21 ft | 10 kts | 224° |
| 2026-05-01 15:16 | 43.66374 | 7.21477 | 21 ft | 2 kts | 238° |
| 2026-05-01 15:16 | 43.66364 | 7.21426 | 21 ft | 4 kts | 275° |
| 2026-05-01 15:17 | 43.66418 | 7.21395 | 21 ft | 2 kts | 357° |
| 2026-05-01 15:18 | 43.66421 | 7.21394 | 21 ft | 0 kts | 357° |